createdAt,value
2018-06-19T00:00:30.514Z,101864.48
2018-06-19T00:02:58.513Z,101855.25
2018-06-19T00:05:29.561Z,101856.16
2018-06-19T00:07:58.201Z,101853.95
2018-06-19T00:10:26.174Z,101857.50
2018-06-19T00:12:54.409Z,101852.66
2018-06-19T00:15:22.257Z,101856.21
2018-06-19T00:17:53.825Z,101851.81
2018-06-19T00:20:21.701Z,101855.77
2018-06-19T00:22:49.590Z,101848.77
2018-06-19T00:25:17.445Z,101859.32
2018-06-19T00:27:45.245Z,101858.44
2018-06-19T00:30:13.026Z,101853.59
2018-06-19T00:32:40.934Z,101853.59
2018-06-19T00:35:08.769Z,101853.19
2018-06-19T00:37:36.527Z,101853.59
2018-06-19T00:40:04.314Z,101847.91
2018-06-19T00:42:32.153Z,101846.57
2018-06-19T00:45:00.012Z,101847.89
2018-06-19T00:47:27.842Z,101843.50
2018-06-19T00:49:56.543Z,101836.00
2018-06-19T00:52:24.357Z,101836.91
2018-06-19T00:54:52.137Z,101836.91
2018-06-19T00:57:20.188Z,101836.02
2018-06-19T00:59:47.966Z,101842.62
2018-06-19T01:02:15.769Z,101836.52
2018-06-19T01:04:44.200Z,101835.20
2018-06-19T01:07:11.922Z,101833.03
2018-06-19T01:09:39.757Z,101836.98
2018-06-19T01:12:07.409Z,101824.23
2018-06-19T01:14:35.472Z,101823.83
2018-06-19T01:17:03.322Z,101823.83
2018-06-19T01:19:31.172Z,101815.02
2018-06-19T01:21:58.999Z,101821.58
2018-06-19T01:24:26.844Z,101819.82
2018-06-19T01:26:54.570Z,101822.05
2018-06-19T01:29:22.382Z,101813.69
2018-06-19T01:31:50.128Z,101815.89
2018-06-19T01:34:17.918Z,101818.09
2018-06-19T01:36:45.657Z,101811.94
2018-06-19T01:39:13.514Z,101805.34
2018-06-19T01:41:41.399Z,101811.05
2018-06-19T01:44:09.098Z,101806.25
2018-06-19T01:46:36.923Z,101797.47
2018-06-19T01:49:04.705Z,101799.25
2018-06-19T01:51:32.461Z,101802.33
2018-06-19T01:54:00.224Z,101747.97
2018-06-19T01:56:27.926Z,101799.28
2018-06-19T01:58:55.932Z,101806.28
2018-06-19T02:01:23.861Z,101803.23
2018-06-19T02:03:51.621Z,101794.01
2018-06-19T02:06:19.536Z,101794.01
2018-06-19T02:08:47.353Z,101783.46
2018-06-19T02:11:15.231Z,101785.22
2018-06-19T02:13:43.055Z,101786.97
2018-06-19T02:16:10.877Z,101790.92
2018-06-19T02:18:38.636Z,101797.52
2018-06-19T02:21:06.409Z,101791.84
2018-06-19T02:23:34.136Z,101802.38
2018-06-19T02:26:02.283Z,101789.20
2018-06-19T02:28:30.067Z,101791.84
2018-06-19T02:30:57.912Z,101793.56
2018-06-19T02:33:25.759Z,101798.84
2018-06-19T02:35:53.564Z,101788.77
2018-06-19T02:38:21.343Z,101787.45
2018-06-19T02:40:49.114Z,101786.97
2018-06-19T02:43:17.004Z,101785.25
2018-06-19T02:45:44.881Z,101789.20
2018-06-19T02:48:12.625Z,101798.84
2018-06-19T02:50:40.452Z,101799.31
2018-06-19T02:53:08.207Z,101801.95
2018-06-19T02:55:35.926Z,101800.66
2018-06-19T02:58:03.711Z,101796.70
2018-06-19T03:00:31.526Z,101794.06
2018-06-19T03:02:59.516Z,101801.09
2018-06-19T03:05:27.319Z,101800.66
2018-06-19T03:07:55.277Z,101798.90
2018-06-19T03:10:23.081Z,101800.27
2018-06-19T03:12:51.446Z,101799.03
2018-06-19T03:15:19.619Z,101802.19
2018-06-19T03:17:47.450Z,101806.20
2018-06-19T03:20:16.021Z,101808.41
2018-06-19T03:22:43.935Z,101809.81
2018-06-19T03:25:12.464Z,101809.84
2018-06-19T03:27:40.205Z,101809.37
2018-06-19T03:30:08.122Z,101808.55
2018-06-19T03:32:35.853Z,101821.29
2018-06-19T03:35:03.601Z,101815.59
2018-06-19T03:37:31.425Z,101819.61
2018-06-19T03:39:59.278Z,101814.37
2018-06-19T03:42:27.118Z,101811.75
2018-06-19T03:44:55.121Z,101812.69
2018-06-19T03:47:23.014Z,101810.95
2018-06-19T03:49:50.974Z,101814.91
2018-06-19T03:52:18.913Z,101821.52
2018-06-19T03:54:46.687Z,101828.55
2018-06-19T03:57:14.639Z,101827.72
2018-06-19T03:59:42.468Z,101833.41
2018-06-19T04:02:10.590Z,101821.55
2018-06-19T04:04:38.456Z,101828.95
2018-06-19T04:07:06.433Z,101829.40
2018-06-19T04:09:34.196Z,101831.55
2018-06-19T04:12:01.905Z,101835.08
2018-06-19T04:14:29.760Z,101833.27
2018-06-19T04:16:57.465Z,101832.81
2018-06-19T04:19:25.785Z,101835.86
2018-06-19T04:21:53.550Z,101841.62
2018-06-19T04:24:21.364Z,101805.01
2018-06-19T04:26:49.233Z,101839.03
2018-06-19T04:29:16.978Z,101834.20
2018-06-19T04:31:45.536Z,101837.72
2018-06-19T04:34:13.340Z,101834.61
2018-06-19T04:36:41.150Z,101841.62
2018-06-19T04:39:10.908Z,101839.81
2018-06-19T04:41:38.755Z,101852.49
2018-06-19T04:44:06.570Z,101840.17
2018-06-19T04:46:34.320Z,101831.11
2018-06-19T04:49:02.006Z,101836.80
2018-06-19T04:51:30.002Z,101823.97
2018-06-19T04:53:57.870Z,101836.46
2018-06-19T04:56:26.006Z,101829.81
2018-06-19T04:58:54.017Z,101835.97
2018-06-19T05:01:21.905Z,101833.39
2018-06-19T05:03:49.872Z,101836.27
2018-06-19T05:06:17.940Z,101832.38
2018-06-19T05:08:45.764Z,101827.59
2018-06-19T05:11:13.793Z,101835.53
2018-06-19T05:13:42.189Z,101837.31
2018-06-19T05:16:10.136Z,101836.84
2018-06-19T05:18:37.931Z,101839.55
2018-06-19T05:21:05.774Z,101835.97
2018-06-19T05:23:33.610Z,101846.52
2018-06-19T05:26:01.587Z,101841.69
2018-06-19T05:28:29.498Z,101847.64
2018-06-19T05:30:57.332Z,101846.33
2018-06-19T05:33:25.709Z,101840.17
2018-06-19T05:35:53.610Z,101848.08
2018-06-19T05:38:21.346Z,101850.25
2018-06-19T05:40:49.337Z,101864.70
2018-06-19T05:43:17.251Z,101870.85
2018-06-19T05:45:45.001Z,101864.76
2018-06-19T05:48:12.900Z,101860.66
2018-06-19T05:50:40.732Z,101861.65
2018-06-19T05:53:08.572Z,101848.44
2018-06-19T05:55:36.422Z,101853.68
2018-06-19T05:58:06.409Z,101853.25
2018-06-19T06:00:34.238Z,101865.14
2018-06-19T06:03:02.453Z,101874.78
2018-06-19T06:05:30.363Z,101876.54
2018-06-19T06:07:58.278Z,101882.66
2018-06-19T06:10:26.061Z,101883.48
2018-06-19T06:12:53.978Z,101882.52
2018-06-19T06:15:21.709Z,101882.94
2018-06-19T06:17:49.539Z,101892.67
2018-06-19T06:20:17.310Z,101897.91
2018-06-19T06:22:45.083Z,101898.30
2018-06-19T06:25:12.910Z,101893.87
2018-06-19T06:27:40.733Z,101899.12
2018-06-19T06:30:08.687Z,101901.76
2018-06-19T06:32:36.463Z,101900.00
2018-06-19T06:35:04.282Z,101898.19
2018-06-19T06:37:32.131Z,101908.30
2018-06-19T06:39:59.918Z,101911.32
2018-06-19T06:42:27.700Z,101924.95
2018-06-19T06:44:55.563Z,101930.20
2018-06-19T06:47:23.429Z,101933.69
2018-06-19T06:49:51.412Z,101935.95
2018-06-19T06:52:19.216Z,101938.59
2018-06-19T06:54:46.992Z,101945.59
2018-06-19T06:57:14.778Z,101949.91
2018-06-19T06:59:42.516Z,101951.23
2018-06-19T07:02:10.307Z,101939.30
2018-06-19T07:04:38.230Z,101941.85
2018-06-19T07:07:05.997Z,101940.17
2018-06-19T07:09:33.708Z,101941.11
2018-06-19T07:12:01.505Z,101947.12
2018-06-19T07:14:29.611Z,101955.73
2018-06-19T07:16:57.365Z,101927.78
2018-06-19T07:19:25.338Z,101960.26
2018-06-19T07:21:53.117Z,101951.05
2018-06-19T07:24:20.929Z,101951.93
2018-06-19T07:26:48.673Z,101969.55
2018-06-19T07:29:16.489Z,101966.62
2018-06-19T07:31:44.338Z,101957.00
2018-06-19T07:34:12.093Z,101963.02
2018-06-19T07:36:39.844Z,101969.14
2018-06-19T07:39:08.690Z,101970.48
2018-06-19T07:41:36.544Z,101983.72
2018-06-19T07:44:04.456Z,101984.71
2018-06-19T07:46:32.170Z,101994.41
2018-06-19T07:48:59.981Z,101996.70
2018-06-19T07:51:27.742Z,102003.42
2018-06-19T07:53:59.638Z,102004.36
2018-06-19T07:56:27.663Z,102004.84
2018-06-19T07:58:56.004Z,101993.70
2018-06-19T08:01:23.903Z,102011.58
2018-06-19T08:03:51.737Z,102016.41
2018-06-19T08:06:20.006Z,102026.06
2018-06-19T08:08:47.836Z,102022.05
2018-06-19T08:11:15.537Z,102016.28
2018-06-19T08:13:43.256Z,102018.88
2018-06-19T08:16:11.108Z,102028.88
2018-06-19T08:18:38.868Z,102022.85
2018-06-19T08:21:08.383Z,102033.75
2018-06-19T08:23:36.325Z,102046.80
2018-06-19T08:26:04.105Z,102050.89
2018-06-19T08:28:31.878Z,102059.23
2018-06-19T08:30:59.634Z,102061.48
2018-06-19T08:33:27.481Z,102061.08
2018-06-19T08:35:55.169Z,102059.27
2018-06-19T08:38:22.953Z,102058.83
2018-06-19T08:40:50.806Z,102062.30
2018-06-19T08:43:18.487Z,102066.64
2018-06-19T08:45:46.290Z,102064.88
2018-06-19T08:48:14.088Z,102075.44
2018-06-19T08:50:42.006Z,102067.89
2018-06-19T08:53:09.788Z,102081.08
2018-06-19T08:55:37.626Z,102082.84
2018-06-19T08:58:05.474Z,102076.63
2018-06-19T09:00:33.269Z,102070.50
2018-06-19T09:03:01.138Z,102061.68
2018-06-19T09:05:29.582Z,102066.52
2018-06-19T09:07:57.562Z,102073.14
2018-06-19T09:10:25.719Z,102070.55
2018-06-19T09:12:53.728Z,102084.64
2018-06-19T09:15:21.500Z,102075.00
2018-06-19T09:17:49.365Z,102077.64
2018-06-19T09:20:17.304Z,102084.11
2018-06-19T09:22:45.218Z,102077.77
2018-06-19T09:25:12.994Z,102085.64
2018-06-19T09:27:40.725Z,102087.84
2018-06-19T09:30:08.514Z,102075.90
2018-06-19T09:32:36.786Z,102072.14
2018-06-19T09:35:04.780Z,102065.33
2018-06-19T09:37:32.597Z,102062.00
2018-06-19T09:40:00.404Z,102057.82
2018-06-19T09:42:32.029Z,102058.61
2018-06-19T09:45:00.319Z,102057.49
2018-06-19T09:47:28.343Z,102062.56
2018-06-19T09:49:59.163Z,102066.63
2018-06-19T09:52:27.232Z,102066.23
2018-06-19T09:54:54.998Z,102068.33
2018-06-19T09:57:22.734Z,102066.81
2018-06-19T09:59:50.593Z,101981.34
2018-06-19T10:02:18.587Z,102073.64
2018-06-19T10:04:46.651Z,102073.61
2018-06-19T10:07:19.077Z,102073.42
2018-06-19T10:09:47.117Z,102071.96
2018-06-19T10:12:15.143Z,102064.78
2018-06-19T10:14:42.769Z,102055.97
2018-06-19T10:17:10.655Z,102053.45
2018-06-19T10:19:38.495Z,102049.08
2018-06-19T10:22:06.723Z,102056.97
2018-06-19T10:24:36.626Z,102057.41
2018-06-19T10:27:04.651Z,102056.47
2018-06-19T10:29:32.607Z,102063.45
2018-06-19T10:32:03.770Z,102058.00
2018-06-19T10:34:31.768Z,102048.90
2018-06-19T10:37:00.107Z,102061.55
2018-06-19T10:39:28.154Z,102062.34
2018-06-19T10:41:56.055Z,102064.08
2018-06-19T10:44:23.903Z,102056.73
2018-06-19T10:46:51.697Z,102061.61
2018-06-19T10:49:19.948Z,102073.14
2018-06-19T10:51:47.739Z,102074.20
2018-06-19T10:54:15.588Z,102074.47
2018-06-19T10:56:43.373Z,102073.73
2018-06-19T10:59:11.131Z,102077.58
2018-06-19T11:01:38.877Z,102091.73
2018-06-19T11:04:06.737Z,102088.77
2018-06-19T11:06:34.492Z,102101.22
2018-06-19T11:09:02.327Z,102105.67
2018-06-19T11:11:30.114Z,102117.98
2018-06-19T11:13:58.129Z,102111.32
2018-06-19T11:16:25.919Z,102120.34
2018-06-19T11:21:20.798Z,102115.22
2018-06-19T11:23:48.563Z,102118.69
2018-06-19T11:26:16.345Z,102124.47
2018-06-19T11:28:44.156Z,102123.41
2018-06-19T11:31:12.224Z,102122.38
2018-06-19T11:33:40.044Z,102122.84
2018-06-19T11:36:07.780Z,102117.65
2018-06-19T11:38:35.948Z,102129.61
2018-06-19T11:41:03.950Z,102137.51
2018-06-19T11:43:31.801Z,102134.30
2018-06-19T11:45:59.834Z,102136.73
2018-06-19T11:48:27.795Z,102136.20
2018-06-19T11:50:55.624Z,102143.16
2018-06-19T11:53:23.550Z,102143.84
2018-06-19T11:55:51.232Z,102143.25
2018-06-19T11:58:19.158Z,102152.95
2018-06-19T12:00:47.220Z,102155.63
2018-06-19T12:03:15.007Z,102145.89
2018-06-19T12:05:42.834Z,102146.43
2018-06-19T12:08:10.757Z,102152.16
2018-06-19T12:10:38.568Z,102142.49
2018-06-19T12:13:06.515Z,102146.05
2018-06-19T12:15:34.416Z,102141.20
2018-06-19T12:18:02.268Z,102155.66
2018-06-19T12:20:30.280Z,102153.83
2018-06-19T12:22:58.066Z,102172.22
2018-06-19T12:25:25.898Z,102157.20
2018-06-19T12:27:53.820Z,102162.02
2018-06-19T12:30:22.710Z,102157.88
2018-06-19T12:32:50.570Z,102162.64
2018-06-19T12:35:24.489Z,102168.68
2018-06-19T12:37:56.796Z,102162.75
2018-06-19T12:40:24.610Z,102174.25
2018-06-19T12:42:52.595Z,102168.47
2018-06-19T12:45:20.454Z,102184.25
2018-06-19T12:47:48.453Z,102185.52
2018-06-19T12:50:38.717Z,102187.91
2018-06-19T12:53:18.517Z,102197.38
2018-06-19T12:55:58.116Z,102191.52
2018-06-19T12:58:25.945Z,102194.78
2018-06-19T13:00:53.727Z,102198.11
2018-06-19T13:03:33.273Z,102192.34
2018-06-19T13:06:12.234Z,102199.26
2018-06-19T13:08:39.952Z,102192.77
2018-06-19T13:11:08.340Z,102201.12
2018-06-19T13:13:47.178Z,102201.05
2018-06-19T13:16:26.337Z,102203.54
2018-06-19T13:19:05.525Z,102214.03
2018-06-19T13:21:33.454Z,102206.49
2018-06-19T13:24:01.310Z,102214.71
2018-06-19T13:26:29.164Z,102206.36
2018-06-19T13:30:10.148Z,102216.61
2018-06-19T13:32:38.515Z,102209.37
2018-06-19T13:35:06.431Z,102216.47
2018-06-19T13:37:34.287Z,102212.49
2018-06-19T13:41:13.138Z,102214.70
2018-06-19T13:43:52.072Z,102222.39
2018-06-19T13:46:19.930Z,102228.91
2018-06-19T13:48:48.178Z,102221.52
2018-06-19T13:51:15.932Z,102227.31
2018-06-19T13:53:44.183Z,102236.85
2018-06-19T13:57:36.457Z,102224.94
2018-06-19T14:00:06.883Z,102227.62
2018-06-19T14:02:34.736Z,102239.84
2018-06-19T14:05:03.003Z,102237.30
2018-06-19T14:07:33.111Z,102247.88
2018-06-19T14:10:19.166Z,102247.95
2018-06-19T14:12:58.117Z,102245.30
2018-06-19T14:15:26.822Z,102249.27
2018-06-19T14:17:54.626Z,102251.34
2018-06-19T14:20:22.434Z,102242.45
2018-06-19T14:22:50.177Z,102238.87
2018-06-19T14:25:18.747Z,102240.50
2018-06-19T14:27:46.446Z,102236.13
2018-06-19T14:30:14.272Z,102248.42
2018-06-19T14:32:42.857Z,102246.13
2018-06-19T14:35:10.968Z,102250.27
2018-06-19T14:37:38.729Z,102258.08
2018-06-19T14:40:06.600Z,102253.34
2018-06-19T14:42:34.581Z,102247.53
2018-06-19T14:45:02.424Z,102251.23
2018-06-19T14:47:30.246Z,102247.67
2018-06-19T14:49:59.128Z,102261.83
2018-06-19T14:52:27.029Z,102251.02
2018-06-19T14:54:54.750Z,102260.67
2018-06-19T14:57:22.673Z,102257.83
2018-06-19T14:59:50.594Z,102256.20
2018-06-19T15:02:18.442Z,102269.61
2018-06-19T15:04:46.211Z,102257.42
2018-06-19T15:07:14.045Z,102257.27
2018-06-19T15:09:42.087Z,102265.12
2018-06-19T15:12:10.068Z,102257.35
2018-06-19T15:14:37.846Z,102262.61
2018-06-19T15:17:05.733Z,102266.53
2018-06-19T15:19:33.494Z,102270.54
2018-06-19T15:22:01.183Z,102269.67
2018-06-19T15:24:28.978Z,102267.30
2018-06-19T15:26:56.833Z,102266.45
2018-06-19T15:29:24.609Z,102263.16
2018-06-19T15:31:52.467Z,102271.95
2018-06-19T15:34:20.436Z,102271.75
2018-06-19T15:36:48.448Z,102272.77
2018-06-19T15:39:16.086Z,102268.72
2018-06-19T15:41:44.168Z,102267.66
2018-06-19T15:44:11.950Z,102262.25
2018-06-19T15:46:39.790Z,102266.75
2018-06-19T15:49:07.666Z,102267.98
2018-06-19T15:51:35.499Z,102265.77
2018-06-19T15:54:03.471Z,102271.34
2018-06-19T15:56:31.859Z,102271.30
2018-06-19T15:58:59.651Z,102277.13
2018-06-19T16:01:27.470Z,102278.41
2018-06-19T16:03:55.153Z,102277.83
2018-06-19T16:06:23.178Z,102275.66
2018-06-19T16:08:51.012Z,102272.59
2018-06-19T16:11:18.814Z,102275.59
2018-06-19T16:13:46.589Z,102282.31
2018-06-19T16:16:14.460Z,102283.53
2018-06-19T16:18:42.298Z,102283.22
2018-06-19T16:21:10.031Z,102278.23
2018-06-19T16:23:37.770Z,102286.67
2018-06-19T16:26:05.659Z,102288.03
2018-06-19T16:28:33.515Z,102284.42
2018-06-19T16:31:01.543Z,102285.05
2018-06-19T16:33:29.422Z,102285.31
2018-06-19T16:35:57.200Z,102288.88
2018-06-19T16:38:25.218Z,102287.40
2018-06-19T16:40:53.053Z,102292.41
2018-06-19T16:43:20.801Z,102285.99
2018-06-19T16:45:48.689Z,102291.91
2018-06-19T16:48:16.578Z,102294.33
2018-06-19T16:50:44.582Z,102289.24
2018-06-19T16:53:12.274Z,102293.81
2018-06-19T16:55:40.127Z,102288.33
2018-06-19T16:58:07.949Z,102291.31
2018-06-19T17:00:35.791Z,102287.50
2018-06-19T17:03:03.761Z,102286.48
2018-06-19T17:05:31.507Z,102283.38
2018-06-19T17:07:59.564Z,102282.66
2018-06-19T17:10:27.319Z,102281.53
2018-06-19T17:12:55.037Z,102288.98
2018-06-19T17:15:22.852Z,102288.48
2018-06-19T17:17:50.658Z,102291.53
2018-06-19T17:20:18.443Z,102296.80
2018-06-19T17:22:46.227Z,102300.52
2018-06-19T17:25:14.155Z,102289.81
2018-06-19T17:27:42.503Z,102282.98
2018-06-19T17:30:10.373Z,102281.89
2018-06-19T17:32:38.168Z,102287.47
2018-06-19T17:35:05.969Z,102284.27
2018-06-19T17:37:33.949Z,102286.38
2018-06-19T17:40:01.703Z,102288.98
2018-06-19T17:42:29.520Z,102292.39
2018-06-19T17:44:57.273Z,102293.67
2018-06-19T17:47:24.973Z,102294.17
2018-06-19T17:49:52.987Z,102288.80
2018-06-19T17:52:20.726Z,102287.92
2018-06-19T17:54:48.526Z,102284.02
2018-06-19T17:57:16.277Z,102282.48
2018-06-19T17:59:44.057Z,102289.59
2018-06-19T18:02:11.768Z,102289.78
2018-06-19T18:04:39.936Z,102290.41
2018-06-19T18:07:07.710Z,102293.42
2018-06-19T18:09:35.503Z,102290.36
2018-06-19T18:12:03.129Z,102287.22
2018-06-19T18:14:30.791Z,102283.46
2018-06-19T18:16:58.686Z,102287.15
2018-06-19T18:19:26.613Z,102286.84
2018-06-19T18:21:54.583Z,102287.80
2018-06-19T18:24:22.254Z,102288.91
2018-06-19T18:26:50.027Z,102290.77
2018-06-19T18:29:17.868Z,102293.17
2018-06-19T18:31:45.548Z,102296.84
2018-06-19T18:34:13.317Z,102292.52
2018-06-19T18:36:41.155Z,102289.73
2018-06-19T18:39:09.891Z,102287.34
2018-06-19T18:41:37.738Z,102290.52
2018-06-19T18:44:05.500Z,102287.91
2018-06-19T18:46:33.279Z,102291.14
2018-06-19T18:49:01.072Z,102288.62
2018-06-19T18:51:28.722Z,102288.96
2018-06-19T18:53:56.782Z,102291.92
2018-06-19T18:56:24.544Z,102291.95
2018-06-19T18:58:52.385Z,102294.80
2018-06-19T19:01:20.296Z,102303.16
2018-06-19T19:03:48.038Z,102300.99
2018-06-19T19:06:15.957Z,102303.24
2018-06-19T19:08:43.778Z,102301.06
2018-06-19T19:11:11.530Z,102304.78
2018-06-19T19:13:39.537Z,102306.11
2018-06-19T19:16:12.881Z,102304.86
2018-06-19T19:18:46.110Z,102310.75
2018-06-19T19:21:13.877Z,102309.98
2018-06-19T19:23:41.705Z,102314.72
2018-06-19T19:26:09.544Z,102317.39
2018-06-19T19:28:42.861Z,102309.89
2018-06-19T19:31:10.711Z,102317.29
2018-06-19T19:33:38.546Z,102321.11
2018-06-19T19:36:06.323Z,102322.28
2018-06-19T19:38:39.708Z,102329.21
2018-06-19T19:41:07.489Z,102328.16
2018-06-19T19:43:35.312Z,102319.61
2018-06-19T19:46:03.017Z,102328.58
2018-06-19T19:48:36.314Z,102329.19
2018-06-19T19:51:04.157Z,102335.94
2018-06-19T19:53:32.044Z,102333.98
2018-06-19T19:56:05.212Z,102340.67
2018-06-19T19:58:38.610Z,102339.00
2018-06-19T20:01:07.272Z,102338.17
2018-06-19T20:03:35.056Z,102332.33
2018-06-19T20:06:03.164Z,102338.66
2018-06-19T20:08:30.877Z,102344.47
2018-06-19T20:10:58.646Z,102345.84
2018-06-19T20:13:26.573Z,102347.25
2018-06-19T20:15:54.239Z,102343.75
2018-06-19T20:18:22.056Z,102345.59
2018-06-19T20:20:49.924Z,102350.90
2018-06-19T20:23:17.731Z,102352.73
2018-06-19T20:25:45.500Z,102357.64
2018-06-19T20:28:13.419Z,102359.45
2018-06-19T20:30:41.077Z,102354.65
2018-06-19T20:33:08.792Z,102355.13
2018-06-19T20:35:36.735Z,102353.94
2018-06-19T20:38:04.558Z,102360.17
2018-06-19T20:40:32.238Z,102354.07
2018-06-19T20:43:00.156Z,102360.28
2018-06-19T20:45:27.834Z,102361.67
2018-06-19T20:47:55.797Z,102354.70
2018-06-19T20:50:23.619Z,102357.84
2018-06-19T20:52:51.466Z,102353.52
2018-06-19T20:55:19.296Z,102354.88
2018-06-19T20:57:47.105Z,102353.16
2018-06-19T21:00:14.851Z,102355.87
2018-06-19T21:02:48.592Z,102354.16
2018-06-19T21:05:16.530Z,102358.59
2018-06-19T21:07:44.432Z,102362.18
2018-06-19T21:10:12.218Z,102366.22
2018-06-19T21:12:39.988Z,102365.81
2018-06-19T21:15:07.853Z,102363.20
2018-06-19T21:17:35.737Z,102363.22
2018-06-19T21:20:03.539Z,102366.31
2018-06-19T21:22:31.619Z,102370.33
2018-06-19T21:24:59.614Z,102365.93
2018-06-19T21:27:27.398Z,102365.98
2018-06-19T21:29:55.357Z,102354.14
2018-06-19T21:32:23.340Z,102360.33
2018-06-19T21:34:51.177Z,102358.16
2018-06-19T21:37:18.988Z,102360.84
2018-06-19T21:39:46.862Z,102360.87
2018-06-19T21:42:14.745Z,102366.56
2018-06-19T21:44:42.498Z,102361.68
2018-06-19T21:47:10.458Z,102367.86
2018-06-19T21:49:38.433Z,102361.28
2018-06-19T21:52:06.647Z,102356.02
2018-06-19T21:54:34.515Z,102355.60
2018-06-19T21:57:02.509Z,102356.50
2018-06-19T21:59:30.296Z,102355.64
2018-06-19T22:01:58.221Z,102351.27
2018-06-19T22:04:26.865Z,102349.06
2018-06-19T22:06:54.870Z,102345.55
2018-06-19T22:09:25.904Z,102345.98
2018-06-19T22:11:57.745Z,102348.63
2018-06-19T22:14:27.808Z,102345.98
2018-06-19T22:16:58.788Z,102342.93
2018-06-19T22:19:29.643Z,102346.89
2018-06-19T22:21:59.938Z,102333.71
2018-06-19T22:24:31.715Z,102335.92
2018-06-19T22:27:01.409Z,102335.50
2018-06-19T22:29:29.625Z,102331.95
2018-06-19T22:31:58.583Z,102327.11
2018-06-19T22:34:27.574Z,102324.48
2018-06-19T22:36:56.242Z,102332.86
2018-06-19T22:39:24.043Z,102328.85
2018-06-19T22:41:51.922Z,102331.48
2018-06-19T22:44:19.899Z,102330.63
2018-06-19T22:46:47.818Z,102324.04
2018-06-19T22:49:15.662Z,102324.96
2018-06-19T22:51:43.574Z,102325.41
2018-06-19T22:54:11.464Z,102319.30
2018-06-19T22:56:39.346Z,102317.52
2018-06-19T22:59:07.213Z,102318.00
2018-06-19T23:01:35.278Z,102316.70
2018-06-19T23:04:03.176Z,102325.05
2018-06-19T23:06:31.129Z,102333.87
2018-06-19T23:08:59.032Z,102329.92
2018-06-19T23:11:26.890Z,102329.92
2018-06-19T23:13:54.704Z,102319.44
2018-06-19T23:16:22.596Z,102317.67
2018-06-19T23:18:50.452Z,102316.82
2018-06-19T23:21:18.345Z,102310.23
2018-06-19T23:23:46.337Z,102304.53
2018-06-19T23:26:14.188Z,102308.48
2018-06-19T23:28:41.943Z,102277.13
2018-06-19T23:31:09.865Z,102311.59
2018-06-19T23:33:37.709Z,102312.08
2018-06-19T23:36:05.572Z,102309.45
2018-06-19T23:38:33.405Z,102309.04
2018-06-19T23:41:01.169Z,102305.95
2018-06-19T23:43:29.103Z,102299.84
2018-06-19T23:45:57.012Z,102297.22
2018-06-19T23:48:24.959Z,102300.33
2018-06-19T23:50:52.805Z,102297.23
2018-06-19T23:53:20.649Z,102299.88
2018-06-19T23:55:48.413Z,102303.00
2018-06-19T23:58:16.409Z,102301.68
